Time;durP1;ratioP1;P1;durP2;ratioP2;P2;SDS_P1;SDS_P2;PMS_P1;PMS_P2;Temp;Humidity;BMP_temperature;BMP_pressure;BME280_temperature;BME280_humidity;BME280_pressure;Samples;Min_cycle;Max_cycle;Signal;HPM_P1;HPM_P2
2022/12/29 00:02:24;;;;;;;6.18;5.35;;;10.50;88.40;;;;;;5081569;28;20566;-68
2022/12/29 00:04:50;;;;;;;4.95;4.40;;;10.50;88.40;;;;;;5065093;28;20052;-70
2022/12/29 00:07:17;;;;;;;4.88;4.38;;;10.50;88.40;;;;;;5080922;28;20044;-70
2022/12/29 00:09:42;;;;;;;6.03;5.43;;;10.50;88.60;;;;;;5081276;28;20036;-70
2022/12/29 00:12:08;;;;;;;5.85;4.90;;;10.50;88.50;;;;;;5064692;28;20048;-70
2022/12/29 00:17:18;;;;;;;6.30;5.28;;;10.50;88.60;;;;;;5080566;28;20214;-70
2022/12/29 00:36:24;;;;;;;5.72;3.85;;;10.60;88.70;;;;;;5081567;28;20036;-71
2022/12/29 00:44:26;;;;;;;5.10;4.43;;;10.60;88.50;;;;;;5065406;28;20051;-71
2022/12/29 00:46:52;;;;;;;5.45;4.05;;;10.60;88.50;;;;;;5080896;28;20036;-71
2022/12/29 00:49:30;;;;;;;5.10;3.80;;;10.60;88.50;;;;;;5064409;28;20040;-71
2022/12/29 00:51:57;;;;;;;5.38;4.15;;;10.60;88.40;;;;;;5081479;28;20062;-71
2022/12/29 00:54:23;;;;;;;4.97;4.25;;;10.60;88.40;;;;;;5080146;28;20169;-71
2022/12/29 00:56:49;;;;;;;5.45;4.05;;;10.60;88.40;;;;;;5081146;28;20497;-71
2022/12/29 00:59:15;;;;;;;5.78;3.70;;;10.60;88.40;;;;;;5077981;28;20173;-71
2022/12/29 01:01:42;;;;;;;5.28;3.72;;;10.60;88.30;;;;;;5080353;28;20040;-71
2022/12/29 01:04:08;;;;;;;4.15;3.60;;;10.60;88.30;;;;;;5077993;28;20071;-71
2022/12/29 01:06:36;;;;;;;3.85;3.45;;;10.60;88.20;;;;;;5080773;28;21716;-71
2022/12/29 01:11:46;;;;;;;4.28;3.58;;;10.70;88.20;;;;;;5080317;28;20093;-70
2022/12/29 01:14:12;;;;;;;3.70;3.30;;;10.70;88.10;;;;;;5080892;28;20368;-71
2022/12/29 01:16:38;;;;;;;6.47;3.60;;;10.70;88.00;;;;;;5080309;28;20044;-70
2022/12/29 01:19:04;;;;;;;5.20;3.40;;;10.70;88.00;;;;;;5079212;28;20542;-71
2022/12/29 01:21:30;;;;;;;4.38;3.03;;;10.70;87.90;;;;;;5079323;28;20032;-71
2022/12/29 01:23:56;;;;;;;5.30;3.45;;;10.70;87.90;;;;;;5063856;28;20044;-71
2022/12/29 01:26:21;;;;;;;4.47;3.10;;;10.70;87.80;;;;;;5080046;28;20044;-71
2022/12/29 01:28:47;;;;;;;5.72;3.25;;;10.70;87.70;;;;;;5078887;28;20089;-71
2022/12/29 01:31:14;;;;;;;4.47;3.00;;;10.70;87.60;;;;;;5078195;28;20036;-71
2022/12/29 01:33:41;;;;;;;5.90;3.22;;;10.70;87.50;;;;;;5078450;28;20981;-71
2022/12/29 01:36:13;;;;;;;3.80;2.97;;;10.70;87.50;;;;;;5080038;28;20472;-71
2022/12/29 01:38:40;;;;;;;4.28;2.70;;;10.80;87.50;;;;;;5060637;28;20036;-71
2022/12/29 01:41:08;;;;;;;3.40;2.80;;;10.70;87.30;;;;;;5098652;28;20059;-71
2022/12/29 01:43:51;;;;;;;3.78;2.78;;;10.80;87.30;;;;;;5082452;28;20036;-71
2022/12/29 01:46:37;;;;;;;3.92;3.10;;;10.80;87.20;;;;;;5083264;28;20452;-71
2022/12/29 01:49:16;;;;;;;3.55;2.05;;;10.80;87.00;;;;;;5082061;28;20089;-71
2022/12/29 01:51:49;;;;;;;4.03;2.75;;;10.80;87.00;;;;;;5081930;28;20048;-71
2022/12/29 01:54:32;;;;;;;2.58;2.20;;;10.80;86.90;;;;;;5081808;28;20392;-71
2022/12/29 01:57:03;;;;;;;3.92;2.67;;;10.80;86.70;;;;;;5066055;28;20044;-71
2022/12/29 01:59:34;;;;;;;5.80;2.45;;;10.80;86.60;;;;;;5081727;28;20143;-71
2022/12/29 02:02:01;;;;;;;3.30;2.28;;;10.90;86.60;;;;;;5081546;28;20041;-71
2022/12/29 02:04:30;;;;;;;4.68;2.30;;;10.90;86.50;;;;;;5065678;28;20036;-71
2022/12/29 02:07:08;;;;;;;2.92;2.05;;;10.90;86.40;;;;;;5083065;28;20098;-71
2022/12/29 02:09:34;;;;;;;3.28;2.13;;;10.90;86.30;;;;;;5082417;28;20036;-71
2022/12/29 02:12:00;;;;;;;4.30;1.83;;;10.90;86.20;;;;;;5083234;28;20044;-71
2022/12/29 02:14:26;;;;;;;3.97;2.22;;;10.90;86.10;;;;;;5082739;28;20036;-71
2022/12/29 02:17:20;;;;;;;3.17;1.92;;;11.00;86.10;;;;;;5083266;28;20506;-71
2022/12/29 02:20:05;;;;;;;3.25;1.92;;;11.00;85.90;;;;;;5100545;28;20071;-71
2022/12/29 02:22:54;;;;;;;2.63;1.98;;;11.00;85.90;;;;;;5100032;28;20044;-71
2022/12/29 02:25:25;;;;;;;3.63;2.30;;;11.00;85.90;;;;;;5081379;28;20042;-71
2022/12/29 02:28:16;;;;;;;3.08;2.08;;;11.00;85.90;;;;;;5074475;28;20051;-71
2022/12/29 02:31:07;;;;;;;3.90;2.00;;;11.00;85.80;;;;;;5084970;28;20044;-71
2022/12/29 02:33:49;;;;;;;4.00;2.05;;;11.00;85.70;;;;;;5085325;28;20040;-71
2022/12/29 02:36:29;;;;;;;3.05;1.80;;;11.00;85.70;;;;;;5085420;28;20048;-71
2022/12/29 02:39:07;;;;;;;2.97;1.90;;;11.00;85.80;;;;;;5078104;28;20044;-71
2022/12/29 02:41:43;;;;;;;3.67;1.83;;;11.00;85.80;;;;;;5082094;28;20127;-71
2022/12/29 02:44:43;;;;;;;3.08;1.63;;;11.00;85.80;;;;;;5083646;28;20078;-71
2022/12/29 02:47:16;;;;;;;2.78;1.70;;;11.00;85.60;;;;;;5065724;28;20035;-71
2022/12/29 02:50:06;;;;;;;2.85;1.45;;;11.00;85.80;;;;;;5081342;28;20089;-71
2022/12/29 02:52:42;;;;;;;2.20;1.55;;;11.00;85.70;;;;;;5065107;28;20080;-71
2022/12/29 02:55:11;;;;;;;2.40;1.13;;;11.00;85.80;;;;;;5074184;28;20493;-71
2022/12/29 02:57:37;;;;;;;3.83;1.58;;;11.00;85.70;;;;;;5086322;28;20036;-71
2022/12/29 03:00:15;;;;;;;2.28;1.40;;;11.00;85.60;;;;;;5071335;28;20094;-71
2022/12/29 03:02:56;;;;;;;2.70;1.45;;;11.00;85.60;;;;;;5089334;28;20092;-71
2022/12/29 03:05:45;;;;;;;2.70;1.30;;;11.00;85.60;;;;;;5081455;28;20063;-71
2022/12/29 03:08:20;;;;;;;2.65;1.20;;;10.90;85.60;;;;;;5084686;28;20074;-71
2022/12/29 03:10:55;;;;;;;1.85;1.20;;;10.90;85.60;;;;;;5084209;28;20049;-71
2022/12/29 03:16:48;;;;;;;3.00;1.40;;;10.90;85.60;;;;;;5080620;28;20130;-71
2022/12/29 03:19:20;;;;;;;1.92;1.30;;;10.90;85.70;;;;;;5077809;28;20040;-71
2022/12/29 03:24:50;;;;;;;2.25;1.58;;;10.90;85.60;;;;;;5084339;28;20048;-71
2022/12/29 03:27:29;;;;;;;3.00;1.30;;;10.80;85.60;;;;;;5075712;28;20067;-71
2022/12/29 03:30:01;;;;;;;2.00;1.40;;;10.80;85.60;;;;;;5070072;28;20467;-71
2022/12/29 03:32:55;;;;;;;2.33;1.30;;;10.80;85.50;;;;;;5085203;28;20113;-71
2022/12/29 03:35:24;;;;;;;4.80;1.60;;;10.80;85.30;;;;;;5101315;28;20098;-71
2022/12/29 03:37:56;;;;;;;3.05;1.55;;;10.80;85.50;;;;;;5065272;28;20485;-71
2022/12/29 03:40:24;;;;;;;5.03;1.50;;;10.80;85.40;;;;;;5085121;28;20036;-71
2022/12/29 03:42:50;;;;;;;5.07;1.50;;;10.80;85.40;;;;;;5080791;28;20106;-70
2022/12/29 03:45:16;;;;;;;2.67;1.50;;;10.70;85.20;;;;;;5081927;28;20064;-70
2022/12/29 03:47:42;;;;;;;4.20;1.23;;;10.70;85.10;;;;;;5056776;28;20049;-70
2022/12/29 03:50:08;;;;;;;3.45;1.20;;;10.80;85.20;;;;;;5087140;28;20446;-70
2022/12/29 03:52:34;;;;;;;3.33;1.30;;;10.70;85.10;;;;;;5060405;28;20393;-70
2022/12/29 03:55:00;;;;;;;5.07;1.55;;;10.70;85.00;;;;;;5068290;28;20037;-70
2022/12/29 03:57:25;;;;;;;4.43;1.10;;;10.70;85.00;;;;;;5076662;28;20039;-70
2022/12/29 03:59:51;;;;;;;2.78;1.20;;;10.70;85.00;;;;;;5092090;28;20093;-70
2022/12/29 04:02:17;;;;;;;3.90;1.45;;;10.70;84.90;;;;;;5087886;28;20401;-70
2022/12/29 04:04:42;;;;;;;3.72;1.17;;;10.70;84.90;;;;;;5089244;28;20088;-70
2022/12/29 04:07:08;;;;;;;2.95;0.90;;;10.70;84.80;;;;;;5088740;28;20135;-70
2022/12/29 04:09:34;;;;;;;4.82;1.25;;;10.70;84.80;;;;;;5090172;28;20047;-70
2022/12/29 04:11:59;;;;;;;6.82;1.20;;;10.60;84.70;;;;;;5090738;28;20050;-70
2022/12/29 04:14:25;;;;;;;4.30;1.10;;;10.60;84.70;;;;;;5091679;28;20067;-70
2022/12/29 04:16:51;;;;;;;3.75;1.10;;;10.60;84.60;;;;;;5062412;28;20076;-70
2022/12/29 04:19:16;;;;;;;3.28;0.88;;;10.60;84.50;;;;;;5088248;28;20036;-70
2022/12/29 04:21:42;;;;;;;3.75;1.27;;;10.60;84.40;;;;;;5072327;28;20051;-70
2022/12/29 04:24:08;;;;;;;3.00;1.00;;;10.50;84.30;;;;;;5073684;28;20112;-70
2022/12/29 04:26:34;;;;;;;2.92;0.85;;;10.50;84.30;;;;;;5077805;28;20068;-71
2022/12/29 04:28:59;;;;;;;4.07;1.02;;;10.50;84.30;;;;;;5089168;28;20047;-71
2022/12/29 04:31:25;;;;;;;4.90;1.00;;;10.50;84.30;;;;;;5083292;28;20094;-70
2022/12/29 04:33:51;;;;;;;5.15;1.00;;;10.50;84.40;;;;;;5072911;28;20044;-70
2022/12/29 04:36:16;;;;;;;3.40;1.00;;;10.50;84.40;;;;;;5073526;28;20374;-70
2022/12/29 04:38:42;;;;;;;5.28;1.38;;;10.40;84.40;;;;;;5085185;28;20123;-70
2022/12/29 04:41:08;;;;;;;5.85;1.65;;;10.40;84.40;;;;;;5056929;28;20056;-70
2022/12/29 04:43:33;;;;;;;3.22;1.30;;;10.40;84.40;;;;;;5085095;28;20445;-70
2022/12/29 04:45:59;;;;;;;4.75;1.52;;;10.40;84.50;;;;;;5078905;28;20048;-70
2022/12/29 04:48:25;;;;;;;5.97;1.48;;;10.30;84.40;;;;;;5085352;28;20408;-70
2022/12/29 04:50:50;;;;;;;11.05;1.90;;;10.30;84.30;;;;;;5091495;28;20121;-70
2022/12/29 04:53:17;;;;;;;6.50;1.50;;;10.30;84.30;;;;;;5082194;28;20054;-70
2022/12/29 04:55:43;;;;;;;6.57;1.30;;;10.30;84.20;;;;;;5075538;28;20036;-70
2022/12/29 04:58:08;;;;;;;5.65;1.55;;;10.30;84.20;;;;;;5078021;28;20042;-69
2022/12/29 05:00:34;;;;;;;5.97;1.60;;;10.30;84.10;;;;;;5074474;28;20037;-70
2022/12/29 05:03:00;;;;;;;6.00;1.70;;;10.30;84.20;;;;;;5081127;28;20458;-70
2022/12/29 05:05:26;;;;;;;6.32;1.27;;;10.30;84.10;;;;;;5064533;28;20039;-71
2022/12/29 05:07:52;;;;;;;7.47;1.65;;;10.30;84.10;;;;;;5070366;28;20098;-70
2022/12/29 05:10:18;;;;;;;5.90;1.40;;;10.20;84.00;;;;;;5072855;28;20041;-70
2022/12/29 05:12:43;;;;;;;5.28;1.38;;;10.20;83.90;;;;;;5078675;28;20037;-70
2022/12/29 05:15:10;;;;;;;7.15;1.83;;;10.20;83.80;;;;;;5080292;28;20032;-70
2022/12/29 05:17:36;;;;;;;6.00;1.80;;;10.20;83.80;;;;;;5077408;28;20040;-70
2022/12/29 05:20:04;;;;;;;8.75;1.60;;;10.20;83.80;;;;;;5093738;28;20048;-70
2022/12/29 05:22:30;;;;;;;6.40;1.48;;;10.20;83.60;;;;;;5063944;28;20491;-70
2022/12/29 05:24:55;;;;;;;8.35;1.85;;;10.10;83.50;;;;;;5077288;28;20041;-70
2022/12/29 05:27:21;;;;;;;6.82;1.33;;;10.20;83.50;;;;;;5075227;28;20041;-70
2022/12/29 05:29:47;;;;;;;5.10;1.30;;;10.10;83.40;;;;;;5087382;28;20044;-70
2022/12/29 05:32:13;;;;;;;6.13;1.20;;;10.10;83.40;;;;;;5073815;28;20032;-70
2022/12/29 05:34:38;;;;;;;6.00;1.20;;;10.10;83.40;;;;;;5080508;28;20439;-70
2022/12/29 05:37:04;;;;;;;6.15;1.40;;;10.00;83.30;;;;;;5082805;28;20032;-70
2022/12/29 05:39:30;;;;;;;5.60;1.27;;;10.10;83.30;;;;;;5075117;28;20067;-70
2022/12/29 05:41:55;;;;;;;5.65;1.45;;;10.00;83.30;;;;;;5072058;28;20064;-70
2022/12/29 05:44:21;;;;;;;9.30;1.40;;;10.00;83.30;;;;;;5078168;28;20079;-70
2022/12/29 05:46:47;;;;;;;4.68;1.10;;;10.00;83.30;;;;;;5068306;28;20044;-70
2022/12/29 05:49:12;;;;;;;8.55;1.70;;;10.00;83.30;;;;;;5084129;28;20135;-70
2022/12/29 05:51:38;;;;;;;8.45;1.27;;;9.90;83.30;;;;;;5062055;28;20047;-70
2022/12/29 05:54:04;;;;;;;8.50;1.67;;;9.90;83.20;;;;;;5085364;28;20040;-70
2022/12/29 05:56:30;;;;;;;5.13;1.10;;;9.90;83.20;;;;;;5071926;28;20079;-70
2022/12/29 05:58:55;;;;;;;7.30;1.33;;;9.90;83.20;;;;;;5091598;28;20036;-70
2022/12/29 06:01:21;;;;;;;7.93;1.48;;;9.90;83.10;;;;;;5081232;28;20114;-71
2022/12/29 06:03:47;;;;;;;6.35;1.40;;;9.90;83.10;;;;;;5067010;28;20087;-70
2022/12/29 06:06:13;;;;;;;6.75;1.15;;;9.90;83.00;;;;;;5079936;28;20036;-71
2022/12/29 06:08:38;;;;;;;7.93;1.35;;;9.90;82.90;;;;;;5089469;28;20393;-71
2022/12/29 06:11:04;;;;;;;6.53;1.48;;;9.80;82.70;;;;;;5075890;28;20137;-71
2022/12/29 06:13:30;;;;;;;9.80;2.53;;;9.80;82.70;;;;;;5089935;28;20038;-71
2022/12/29 06:15:55;;;;;;;12.07;2.10;;;9.80;82.60;;;;;;5057258;28;20051;-70
2022/12/29 06:18:21;;;;;;;10.38;1.95;;;9.80;82.40;;;;;;5082917;28;20045;-70
2022/12/29 06:20:47;;;;;;;8.02;2.08;;;9.80;82.40;;;;;;5059293;28;20040;-69
2022/12/29 06:23:13;;;;;;;7.40;1.73;;;9.80;82.40;;;;;;5087795;28;20508;-70
2022/12/29 06:25:39;;;;;;;9.13;1.88;;;9.80;82.40;;;;;;5067060;28;20075;-70
2022/12/29 06:28:05;;;;;;;12.20;2.65;;;9.80;82.40;;;;;;5089749;28;20069;-71
2022/12/29 06:30:31;;;;;;;10.50;1.75;;;9.80;82.40;;;;;;5078761;28;20374;-69
2022/12/29 06:32:58;;;;;;;7.72;1.80;;;9.80;82.40;;;;;;5081538;28;20547;-70
2022/12/29 06:35:24;;;;;;;8.73;1.80;;;9.80;82.30;;;;;;5081677;28;20119;-68
2022/12/29 06:37:50;;;;;;;9.63;2.22;;;9.80;82.30;;;;;;5088213;28;20424;-69
2022/12/29 06:40:16;;;;;;;9.25;1.60;;;9.70;82.20;;;;;;5079310;28;20036;-70
2022/12/29 06:42:41;;;;;;;4.10;1.40;;;9.80;82.30;;;;;;5077099;28;20110;-70
2022/12/29 06:45:07;;;;;;;7.93;1.88;;;9.80;82.30;;;;;;5077220;28;20044;-70
2022/12/29 06:47:34;;;;;;;10.85;1.95;;;9.70;82.20;;;;;;5086267;28;20087;-69
2022/12/29 06:50:00;;;;;;;10.85;2.38;;;9.80;82.20;;;;;;5085209;28;20508;-69
2022/12/29 06:52:26;;;;;;;8.55;1.63;;;9.80;82.20;;;;;;5083291;28;20067;-69
2022/12/29 06:54:52;;;;;;;9.73;2.22;;;9.80;82.20;;;;;;5085462;28;20047;-69
2022/12/29 06:57:17;;;;;;;8.45;1.90;;;9.80;82.20;;;;;;5089756;28;20039;-69
2022/12/29 06:59:43;;;;;;;9.52;1.45;;;9.80;82.10;;;;;;5084969;28;20523;-69
2022/12/29 07:02:14;;;;;;;7.90;1.55;;;9.80;82.20;;;;;;5087349;28;20079;-69
2022/12/29 07:04:40;;;;;;;7.85;2.00;;;9.70;82.10;;;;;;5086266;28;20417;-70
2022/12/29 07:07:05;;;;;;;6.88;1.88;;;9.80;82.20;;;;;;5058462;28;20115;-69
2022/12/29 07:09:31;;;;;;;7.15;1.58;;;9.80;82.20;;;;;;5080071;28;20094;-69
2022/12/29 07:11:57;;;;;;;9.68;2.22;;;9.80;82.10;;;;;;5085360;28;20098;-69
2022/12/29 07:14:22;;;;;;;12.30;2.22;;;9.70;82.10;;;;;;5080490;28;20037;-68
2022/12/29 07:16:48;;;;;;;10.35;2.60;;;9.70;82.00;;;;;;5071748;28;20486;-68
2022/12/29 07:19:14;;;;;;;7.88;1.85;;;9.70;82.00;;;;;;5069787;28;20036;-68
2022/12/29 07:21:40;;;;;;;7.82;2.15;;;9.80;82.10;;;;;;5090090;28;20397;-68
2022/12/29 07:24:05;;;;;;;7.32;2.33;;;9.70;82.20;;;;;;5091088;28;20044;-68
2022/12/29 07:26:31;;;;;;;8.20;2.10;;;9.80;82.20;;;;;;5090841;28;20039;-69
2022/12/29 07:28:57;;;;;;;12.93;1.90;;;9.70;82.20;;;;;;5092957;28;20486;-70
2022/12/29 07:31:23;;;;;;;9.85;2.08;;;9.70;82.20;;;;;;5062071;28;20037;-69
2022/12/29 07:33:49;;;;;;;8.73;2.67;;;9.70;82.20;;;;;;5083283;28;20039;-69
2022/12/29 07:36:16;;;;;;;9.25;1.60;;;9.70;82.20;;;;;;5061446;28;20044;-69
2022/12/29 07:38:42;;;;;;;7.43;1.90;;;9.70;82.20;;;;;;5094782;28;20043;-69
2022/12/29 07:41:08;;;;;;;8.43;1.75;;;9.70;82.10;;;;;;5092493;28;20425;-69
2022/12/29 07:43:34;;;;;;;11.82;2.88;;;9.70;82.10;;;;;;5074789;28;20040;-69
2022/12/29 07:45:59;;;;;;;12.60;2.25;;;9.70;82.00;;;;;;5075487;28;20036;-69
2022/12/29 07:48:25;;;;;;;6.10;1.80;;;9.70;81.90;;;;;;5058894;28;20040;-69
2022/12/29 07:50:52;;;;;;;9.27;2.10;;;9.70;81.90;;;;;;5094026;28;20044;-69
2022/12/29 07:53:18;;;;;;;8.57;2.15;;;9.70;81.80;;;;;;5075700;28;20131;-69
2022/12/29 07:55:44;;;;;;;11.95;1.85;;;9.70;82.20;;;;;;5074350;28;20123;-69
2022/12/29 07:58:10;;;;;;;10.38;2.38;;;9.70;81.80;;;;;;5059389;28;20036;-69
2022/12/29 08:00:36;;;;;;;12.00;2.67;;;9.80;81.70;;;;;;5074488;28;20045;-69
2022/12/29 08:03:02;;;;;;;10.95;2.72;;;9.70;81.60;;;;;;5077430;28;20412;-69
2022/12/29 08:05:27;;;;;;;11.95;2.35;;;9.70;81.50;;;;;;5079034;28;20044;-69
2022/12/29 08:07:53;;;;;;;12.40;2.20;;;9.70;81.40;;;;;;5056545;28;20040;-69
2022/12/29 08:10:19;;;;;;;11.65;2.85;;;9.70;81.30;;;;;;5073859;28;20044;-69
2022/12/29 08:12:44;;;;;;;13.52;2.35;;;9.70;81.30;;;;;;5075104;28;20105;-70
2022/12/29 08:15:11;;;;;;;11.45;2.15;;;9.70;81.30;;;;;;5086617;28;20120;-69
2022/12/29 08:17:37;;;;;;;14.93;2.88;;;9.70;81.20;;;;;;5077165;28;20036;-69
2022/12/29 08:20:04;;;;;;;15.25;2.92;;;9.70;81.20;;;;;;5073836;28;20386;-69
2022/12/29 08:22:29;;;;;;;15.57;2.88;;;9.70;81.20;;;;;;5090076;28;20044;-69
2022/12/29 08:24:55;;;;;;;17.38;3.35;;;9.70;81.20;;;;;;5092727;28;20039;-69
2022/12/29 08:27:21;;;;;;;15.90;2.72;;;9.70;81.20;;;;;;5057280;28;20105;-69
2022/12/29 08:29:47;;;;;;;13.02;2.88;;;9.70;81.20;;;;;;5074090;28;20094;-69
2022/12/29 08:32:13;;;;;;;10.80;2.92;;;9.70;81.10;;;;;;5082628;28;20041;-69
2022/12/29 08:34:38;;;;;;;11.65;2.72;;;9.70;80.90;;;;;;5057505;28;20511;-69
2022/12/29 08:37:04;;;;;;;16.65;2.97;;;9.70;80.90;;;;;;5090608;28;20043;-69
2022/12/29 08:39:30;;;;;;;15.05;2.95;;;9.70;81.00;;;;;;5093283;28;20370;-69
2022/12/29 08:41:56;;;;;;;12.35;2.80;;;9.70;80.90;;;;;;5059750;28;20109;-70
2022/12/29 08:44:22;;;;;;;18.02;2.88;;;9.70;80.90;;;;;;5061289;28;20049;-69
2022/12/29 08:46:47;;;;;;;8.55;2.40;;;9.70;80.90;;;;;;5088192;28;20044;-69
2022/12/29 08:49:13;;;;;;;14.60;4.03;;;9.70;80.80;;;;;;5076010;28;20079;-69
2022/12/29 08:51:39;;;;;;;13.85;2.78;;;9.80;80.80;;;;;;5093433;28;20119;-69
2022/12/29 08:54:05;;;;;;;11.48;2.60;;;9.80;80.60;;;;;;5093403;28;20032;-70
2022/12/29 08:56:31;;;;;;;9.68;2.58;;;9.80;80.60;;;;;;5092985;28;20464;-70
2022/12/29 08:58:56;;;;;;;7.68;2.10;;;9.80;80.60;;;;;;5093271;28;20059;-69
2022/12/29 09:01:22;;;;;;;9.60;2.50;;;9.80;80.60;;;;;;5085823;28;20504;-69
2022/12/29 09:03:48;;;;;;;13.85;2.20;;;9.80;80.50;;;;;;5073185;28;20044;-69
2022/12/29 09:06:16;;;;;;;11.10;2.45;;;9.80;80.50;;;;;;5082488;28;20540;-69
2022/12/29 09:08:42;;;;;;;14.55;2.58;;;9.80;80.50;;;;;;5046032;28;20066;-68
2022/12/29 09:11:14;;;;;;;10.80;2.55;;;9.80;80.50;;;;;;5072768;28;20048;-69
2022/12/29 09:13:39;;;;;;;10.45;2.15;;;9.80;80.60;;;;;;5079025;28;20040;-69
2022/12/29 09:16:05;;;;;;;14.57;2.70;;;9.80;80.70;;;;;;5093223;28;20543;-69
2022/12/29 09:18:31;;;;;;;15.77;2.53;;;9.80;80.70;;;;;;5092980;28;20523;-69
2022/12/29 09:20:59;;;;;;;10.23;2.35;;;9.80;80.80;;;;;;5091442;28;20133;-70
2022/12/29 09:23:25;;;;;;;13.88;2.90;;;9.80;80.90;;;;;;5072564;28;20508;-70
2022/12/29 09:25:51;;;;;;;10.98;2.22;;;9.80;80.90;;;;;;5072428;28;20040;-69
2022/12/29 09:28:17;;;;;;;10.63;2.25;;;9.80;80.90;;;;;;5075485;28;20059;-70
2022/12/29 09:30:43;;;;;;;14.35;2.25;;;9.80;81.00;;;;;;5072309;28;20052;-69
2022/12/29 09:33:08;;;;;;;10.18;2.33;;;9.80;81.00;;;;;;5073328;28;20048;-72
2022/12/29 09:35:34;;;;;;;12.05;1.90;;;9.80;81.00;;;;;;5080748;28;20120;-69
2022/12/29 09:38:00;;;;;;;14.40;3.25;;;9.80;81.00;;;;;;5082407;28;20036;-69
2022/12/29 09:40:31;;;;;;;10.70;1.98;;;9.80;81.00;;;;;;5065538;28;20182;-70
2022/12/29 09:43:22;;;;;;;9.85;2.13;;;9.90;81.10;;;;;;5087101;28;20079;-69
2022/12/29 09:46:29;;;;;;;11.63;2.63;;;9.90;81.10;;;;;;5073084;28;20090;-69
2022/12/29 09:49:04;;;;;;;10.50;2.78;;;9.90;81.30;;;;;;5078763;28;20039;-70
2022/12/29 09:51:32;;;;;;;8.52;1.75;;;9.80;81.40;;;;;;5083861;28;20032;-69
2022/12/29 09:54:19;;;;;;;11.15;2.25;;;9.80;81.50;;;;;;5083123;28;20495;-68
2022/12/29 09:56:47;;;;;;;11.43;1.95;;;9.90;81.70;;;;;;5084603;28;20032;-69
2022/12/29 09:59:23;;;;;;;13.68;2.67;;;9.80;81.80;;;;;;5079034;28;20040;-68
2022/12/29 10:02:10;;;;;;;13.27;2.88;;;9.90;81.90;;;;;;5084455;28;20070;-69
2022/12/29 10:04:36;;;;;;;10.52;2.63;;;9.80;81.90;;;;;;5088158;28;20044;-70
2022/12/29 10:07:26;;;;;;;14.98;2.50;;;9.80;82.00;;;;;;5056812;28;20040;-70
2022/12/29 10:10:35;;;;;;;13.65;2.50;;;9.80;82.10;;;;;;5072037;28;20036;-69
2022/12/29 10:13:15;;;;;;;9.20;2.40;;;9.80;82.20;;;;;;5084692;28;20044;-68
2022/12/29 10:15:50;;;;;;;10.05;2.60;;;9.80;82.40;;;;;;5091116;28;20119;-69
2022/12/29 10:18:33;;;;;;;15.55;2.63;;;9.80;82.50;;;;;;5091627;28;20042;-69
2022/12/29 10:21:15;;;;;;;12.32;2.60;;;9.80;82.70;;;;;;5090385;28;20450;-70
2022/12/29 10:23:44;;;;;;;11.75;2.45;;;9.80;82.80;;;;;;5076267;28;20040;-70
2022/12/29 10:26:16;;;;;;;11.43;2.72;;;9.70;82.80;;;;;;5074675;28;20068;-70
2022/12/29 10:28:52;;;;;;;7.80;1.65;;;9.80;83.00;;;;;;5084710;28;20060;-70
2022/12/29 10:31:38;;;;;;;10.63;2.25;;;9.80;83.10;;;;;;5072000;28;20048;-70
2022/12/29 10:34:17;;;;;;;10.07;2.35;;;9.80;83.20;;;;;;5077542;28;20481;-70
2022/12/29 10:36:48;;;;;;;12.82;2.03;;;9.80;83.30;;;;;;5089184;28;20137;-71
2022/12/29 10:39:32;;;;;;;10.70;2.88;;;9.70;83.30;;;;;;5073513;28;20067;-71
2022/12/29 10:42:12;;;;;;;8.20;1.67;;;9.70;83.40;;;;;;5084002;28;20079;-70
2022/12/29 10:44:38;;;;;;;7.05;1.63;;;9.70;83.40;;;;;;5074115;28;20044;-71
2022/12/29 10:47:10;;;;;;;8.73;2.53;;;9.70;83.50;;;;;;5086893;28;20062;-70
2022/12/29 10:49:41;;;;;;;10.05;2.15;;;9.70;83.70;;;;;;5089734;28;20036;-70
2022/12/29 10:52:09;;;;;;;7.90;1.70;;;9.70;83.70;;;;;;5081340;28;20086;-69
2022/12/29 10:55:05;;;;;;;7.97;2.00;;;9.70;83.80;;;;;;5091425;28;20064;-69
2022/12/29 10:57:36;;;;;;;11.80;2.83;;;9.80;84.00;;;;;;5087628;28;20047;-70
2022/12/29 11:00:10;;;;;;;10.05;2.22;;;9.70;84.10;;;;;;5085183;28;20052;-70
2022/12/29 11:02:48;;;;;;;12.05;2.67;;;9.80;84.20;;;;;;5076445;28;20119;-71
2022/12/29 11:05:28;;;;;;;7.50;1.92;;;9.80;84.30;;;;;;5078322;28;20044;-71
2022/12/29 11:08:02;;;;;;;11.60;2.95;;;9.80;84.40;;;;;;5094639;28;20841;-71
2022/12/29 11:10:39;;;;;;;11.25;2.30;;;9.80;84.50;;;;;;5092292;28;20048;-71
2022/12/29 11:13:47;;;;;;;7.80;2.08;;;9.80;84.40;;;;;;5094714;28;20097;-71
2022/12/29 11:16:12;;;;;;;10.15;1.88;;;9.80;84.40;;;;;;4989931;28;20051;-70
2022/12/29 11:18:42;;;;;;;8.55;1.65;;;9.80;84.50;;;;;;5058413;28;20457;-70
2022/12/29 11:21:45;;;;;;;13.70;2.28;;;9.80;84.50;;;;;;5087667;28;20039;-70
2022/12/29 11:24:29;;;;;;;12.18;2.70;;;9.80;84.50;;;;;;5103842;28;20399;-70
2022/12/29 11:27:22;;;;;;;12.43;2.80;;;9.80;84.40;;;;;;5088424;28;20040;-70
2022/12/29 11:29:50;;;;;;;12.25;3.10;;;9.90;84.40;;;;;;5088542;28;20079;-70
2022/12/29 11:32:22;;;;;;;12.02;2.80;;;9.90;84.40;;;;;;5105592;28;20036;-70
2022/12/29 11:34:48;;;;;;;18.73;3.30;;;9.90;84.40;;;;;;5088042;28;20065;-70
2022/12/29 11:37:29;;;;;;;15.63;2.67;;;9.80;84.30;;;;;;5088195;28;20048;-70
2022/12/29 11:39:59;;;;;;;11.90;3.05;;;9.90;84.30;;;;;;5088610;28;20057;-70
2022/12/29 11:42:59;;;;;;;12.95;2.75;;;9.90;84.30;;;;;;5087621;28;20052;-70
2022/12/29 11:45:34;;;;;;;16.77;3.80;;;9.90;84.40;;;;;;5087899;28;20048;-70
2022/12/29 11:48:09;;;;;;;12.00;2.90;;;9.90;84.50;;;;;;5087331;28;20418;-70
2022/12/29 11:50:39;;;;;;;13.57;3.22;;;9.90;84.40;;;;;;5087818;28;20089;-70
2022/12/29 11:53:21;;;;;;;11.23;3.08;;;9.90;84.50;;;;;;5070552;28;20036;-70
2022/12/29 11:56:13;;;;;;;15.38;2.83;;;9.90;84.30;;;;;;5088629;28;20098;-70
2022/12/29 11:58:39;;;;;;;18.35;3.42;;;10.00;84.20;;;;;;5088760;28;20438;-70
2022/12/29 12:01:16;;;;;;;20.15;3.90;;;10.00;84.30;;;;;;5087875;28;20036;-70
2022/12/29 12:04:16;;;;;;;16.17;3.40;;;10.00;84.10;;;;;;5087239;28;20048;-70
2022/12/29 12:07:12;;;;;;;15.13;3.10;;;10.00;83.70;;;;;;5086960;28;20075;-70
2022/12/29 12:09:51;;;;;;;19.35;3.10;;;10.00;83.70;;;;;;5104421;28;20044;-70
2022/12/29 12:12:46;;;;;;;19.73;3.70;;;10.00;83.50;;;;;;5087372;28;20059;-70
2022/12/29 12:15:28;;;;;;;15.85;3.53;;;10.00;83.00;;;;;;5084017;28;20044;-70
2022/12/29 12:18:12;;;;;;;16.38;3.00;;;10.00;83.10;;;;;;5086102;28;20484;-70
2022/12/29 12:20:47;;;;;;;22.33;4.47;;;10.00;83.10;;;;;;5067858;28;20046;-70
2022/12/29 12:23:59;;;;;;;19.35;3.60;;;9.90;82.80;;;;;;5071109;28;20350;-70
2022/12/29 12:26:51;;;;;;;21.92;3.88;;;10.00;82.60;;;;;;5054748;28;20058;-70
2022/12/29 12:29:44;;;;;;;18.17;4.28;;;10.00;82.80;;;;;;5086199;28;20112;-70
2022/12/29 12:32:15;;;;;;;18.77;3.63;;;10.00;82.70;;;;;;5080809;28;20460;-70
2022/12/29 12:34:47;;;;;;;17.63;3.70;;;9.90;82.60;;;;;;5086889;28;20036;-70
2022/12/29 12:37:39;;;;;;;23.65;3.97;;;10.00;82.70;;;;;;5087314;28;20039;-70
2022/12/29 12:40:27;;;;;;;19.52;4.65;;;9.90;82.40;;;;;;5079666;28;20590;-70
2022/12/29 12:43:33;;;;;;;19.77;4.55;;;9.90;82.60;;;;;;5081133;28;20635;-70
2022/12/29 12:46:37;;;;;;;15.88;3.95;;;10.00;82.70;;;;;;5099427;28;20036;-70
2022/12/29 12:49:08;;;;;;;20.52;3.35;;;10.00;82.60;;;;;;5083950;28;20040;-69
2022/12/29 12:51:57;;;;;;;15.15;3.28;;;10.00;83.00;;;;;;5084015;28;20159;-69
2022/12/29 12:54:23;;;;;;;20.55;3.85;;;10.00;82.50;;;;;;5083216;28;20040;-70
2022/12/29 12:57:01;;;;;;;18.23;3.80;;;10.00;82.40;;;;;;5081723;28;20492;-70
2022/12/29 13:00:01;;;;;;;15.52;3.08;;;10.00;82.30;;;;;;5082288;28;20040;-70
2022/12/29 13:02:42;;;;;;;15.82;3.72;;;10.00;82.00;;;;;;5089471;28;20131;-70
2022/12/29 13:05:08;;;;;;;13.20;2.42;;;10.00;82.00;;;;;;5080523;28;20050;-70
2022/12/29 13:08:12;;;;;;;15.07;2.97;;;9.90;81.80;;;;;;5065127;28;20122;-70
2022/12/29 13:11:06;;;;;;;14.13;3.42;;;9.90;81.60;;;;;;5074282;28;20052;-70
2022/12/29 13:13:35;;;;;;;12.35;2.97;;;9.90;81.20;;;;;;5082913;28;20046;-70
2022/12/29 13:16:17;;;;;;;16.65;2.58;;;9.90;81.40;;;;;;5082662;28;20035;-70
2022/12/29 13:18:52;;;;;;;13.98;2.90;;;9.90;81.30;;;;;;5082256;28;20429;-70
2022/12/29 13:22:04;;;;;;;16.42;3.95;;;9.90;81.20;;;;;;5081169;28;20036;-70
2022/12/29 13:24:54;;;;;;;13.40;2.85;;;10.00;81.00;;;;;;5073182;28;20670;-70
2022/12/29 13:27:48;;;;;;;15.82;3.10;;;9.90;81.10;;;;;;5079597;28;20051;-70
2022/12/29 13:30:39;;;;;;;10.70;2.30;;;9.90;81.00;;;;;;5082609;28;20036;-70
2022/12/29 13:33:37;;;;;;;12.70;2.92;;;9.90;81.00;;;;;;5082430;28;20036;-70
2022/12/29 13:36:32;;;;;;;15.68;2.80;;;9.90;80.90;;;;;;5066898;28;20054;-70
2022/12/29 13:39:19;;;;;;;17.05;3.90;;;10.00;81.10;;;;;;5066250;28;20036;-70
2022/12/29 13:41:50;;;;;;;17.88;2.90;;;9.90;81.10;;;;;;5081875;28;20084;-70
2022/12/29 13:44:39;;;;;;;14.57;2.75;;;10.00;81.10;;;;;;5083924;28;20451;-70
2022/12/29 13:47:19;;;;;;;12.75;2.33;;;10.00;81.00;;;;;;5080346;28;20044;-70
2022/12/29 13:49:46;;;;;;;11.55;2.83;;;9.90;80.90;;;;;;5082640;28;20043;-70